sensor_id;sensor_type;location;lat;lon;timestamp;P1;durP1;ratioP1;P2;durP2;ratioP2
51854;SDS011;37895;53.240;6.572;2023-04-05T00:01:08;8.32;;;6.97;;
51854;SDS011;37895;53.240;6.572;2023-04-05T00:03:36;7.80;;;6.25;;
51854;SDS011;37895;53.240;6.572;2023-04-05T00:06:02;9.43;;;6.68;;
51854;SDS011;37895;53.240;6.572;2023-04-05T00:08:29;9.90;;;6.85;;
51854;SDS011;37895;53.240;6.572;2023-04-05T00:10:55;8.85;;;6.50;;
51854;SDS011;37895;53.240;6.572;2023-04-05T00:13:21;8.13;;;6.90;;
51854;SDS011;37895;53.240;6.572;2023-04-05T00:15:47;8.50;;;7.05;;
51854;SDS011;37895;53.240;6.572;2023-04-05T00:18:13;10.93;;;6.78;;
51854;SDS011;37895;53.240;6.572;2023-04-05T00:20:51;10.15;;;7.03;;
51854;SDS011;37895;53.240;6.572;2023-04-05T00:23:17;8.25;;;7.00;;
51854;SDS011;37895;53.240;6.572;2023-04-05T00:25:45;8.43;;;6.38;;
51854;SDS011;37895;53.240;6.572;2023-04-05T00:30:37;9.60;;;6.68;;
51854;SDS011;37895;53.240;6.572;2023-04-05T00:33:03;9.23;;;6.93;;
51854;SDS011;37895;53.240;6.572;2023-04-05T00:35:29;9.23;;;7.13;;
51854;SDS011;37895;53.240;6.572;2023-04-05T00:37:55;8.80;;;7.70;;
51854;SDS011;37895;53.240;6.572;2023-04-05T00:40:21;10.18;;;7.40;;
51854;SDS011;37895;53.240;6.572;2023-04-05T00:42:47;11.88;;;8.27;;
51854;SDS011;37895;53.240;6.572;2023-04-05T00:45:13;10.05;;;7.95;;
51854;SDS011;37895;53.240;6.572;2023-04-05T00:47:40;11.43;;;7.40;;
51854;SDS011;37895;53.240;6.572;2023-04-05T00:50:06;8.85;;;7.10;;
51854;SDS011;37895;53.240;6.572;2023-04-05T00:52:33;9.88;;;7.00;;
51854;SDS011;37895;53.240;6.572;2023-04-05T00:55:01;9.75;;;7.03;;
51854;SDS011;37895;53.240;6.572;2023-04-05T00:57:31;8.70;;;7.38;;
51854;SDS011;37895;53.240;6.572;2023-04-05T00:59:58;9.45;;;7.05;;
51854;SDS011;37895;53.240;6.572;2023-04-05T01:02:27;9.30;;;7.82;;
51854;SDS011;37895;53.240;6.572;2023-04-05T01:04:58;12.10;;;7.75;;
51854;SDS011;37895;53.240;6.572;2023-04-05T01:10:17;8.98;;;7.45;;
51854;SDS011;37895;53.240;6.572;2023-04-05T01:12:50;8.95;;;7.72;;
51854;SDS011;37895;53.240;6.572;2023-04-05T01:15:16;10.65;;;8.18;;
51854;SDS011;37895;53.240;6.572;2023-04-05T01:17:42;11.05;;;8.00;;
51854;SDS011;37895;53.240;6.572;2023-04-05T01:20:11;10.13;;;7.60;;
51854;SDS011;37895;53.240;6.572;2023-04-05T01:31:50;10.25;;;8.38;;
51854;SDS011;37895;53.240;6.572;2023-04-05T01:34:32;12.25;;;8.20;;
51854;SDS011;37895;53.240;6.572;2023-04-05T01:37:07;9.43;;;7.45;;
51854;SDS011;37895;53.240;6.572;2023-04-05T01:39:36;8.23;;;7.32;;
51854;SDS011;37895;53.240;6.572;2023-04-05T01:42:03;7.60;;;6.80;;
51854;SDS011;37895;53.240;6.572;2023-04-05T01:44:29;8.68;;;7.05;;
51854;SDS011;37895;53.240;6.572;2023-04-05T01:46:55;7.35;;;6.05;;
51854;SDS011;37895;53.240;6.572;2023-04-05T01:49:21;7.95;;;6.40;;
51854;SDS011;37895;53.240;6.572;2023-04-05T01:51:48;6.90;;;6.20;;
51854;SDS011;37895;53.240;6.572;2023-04-05T01:54:14;6.25;;;5.68;;
51854;SDS011;37895;53.240;6.572;2023-04-05T01:56:40;7.38;;;6.68;;
51854;SDS011;37895;53.240;6.572;2023-04-05T01:59:05;7.97;;;5.72;;
51854;SDS011;37895;53.240;6.572;2023-04-05T02:01:31;8.80;;;7.90;;
51854;SDS011;37895;53.240;6.572;2023-04-05T02:03:57;9.35;;;7.10;;
51854;SDS011;37895;53.240;6.572;2023-04-05T02:06:22;10.13;;;8.02;;
51854;SDS011;37895;53.240;6.572;2023-04-05T02:08:48;10.88;;;9.10;;
51854;SDS011;37895;53.240;6.572;2023-04-05T02:11:14;12.45;;;8.55;;
51854;SDS011;37895;53.240;6.572;2023-04-05T02:13:39;9.63;;;8.15;;
51854;SDS011;37895;53.240;6.572;2023-04-05T02:16:05;11.43;;;9.13;;
51854;SDS011;37895;53.240;6.572;2023-04-05T02:18:31;12.00;;;8.60;;
51854;SDS011;37895;53.240;6.572;2023-04-05T02:21:03;9.52;;;8.23;;
51854;SDS011;37895;53.240;6.572;2023-04-05T02:23:30;9.70;;;8.50;;
51854;SDS011;37895;53.240;6.572;2023-04-05T02:28:22;13.00;;;8.45;;
51854;SDS011;37895;53.240;6.572;2023-04-05T02:30:48;10.73;;;8.18;;
51854;SDS011;37895;53.240;6.572;2023-04-05T02:33:14;10.35;;;8.18;;
51854;SDS011;37895;53.240;6.572;2023-04-05T02:35:39;9.38;;;8.35;;
51854;SDS011;37895;53.240;6.572;2023-04-05T02:38:05;9.35;;;8.45;;
51854;SDS011;37895;53.240;6.572;2023-04-05T02:40:31;11.48;;;8.75;;
51854;SDS011;37895;53.240;6.572;2023-04-05T02:42:57;10.43;;;9.32;;
51854;SDS011;37895;53.240;6.572;2023-04-05T02:45:22;12.23;;;9.38;;
51854;SDS011;37895;53.240;6.572;2023-04-05T02:47:48;11.45;;;8.88;;
51854;SDS011;37895;53.240;6.572;2023-04-05T02:50:14;12.02;;;10.30;;
51854;SDS011;37895;53.240;6.572;2023-04-05T02:52:44;12.93;;;9.50;;
51854;SDS011;37895;53.240;6.572;2023-04-05T02:55:11;10.93;;;9.70;;
51854;SDS011;37895;53.240;6.572;2023-04-05T02:57:36;12.77;;;9.57;;
51854;SDS011;37895;53.240;6.572;2023-04-05T03:00:03;10.63;;;9.05;;
51854;SDS011;37895;53.240;6.572;2023-04-05T03:02:29;10.50;;;9.40;;
51854;SDS011;37895;53.240;6.572;2023-04-05T03:04:55;14.02;;;9.60;;
51854;SDS011;37895;53.240;6.572;2023-04-05T03:07:21;11.68;;;9.48;;
51854;SDS011;37895;53.240;6.572;2023-04-05T03:09:49;12.85;;;10.52;;
51854;SDS011;37895;53.240;6.572;2023-04-05T03:12:15;12.70;;;10.27;;
51854;SDS011;37895;53.240;6.572;2023-04-05T03:14:41;13.50;;;9.05;;
51854;SDS011;37895;53.240;6.572;2023-04-05T03:17:06;14.75;;;9.70;;
51854;SDS011;37895;53.240;6.572;2023-04-05T03:19:32;12.27;;;10.48;;
51854;SDS011;37895;53.240;6.572;2023-04-05T03:21:59;12.43;;;9.95;;
51854;SDS011;37895;53.240;6.572;2023-04-05T03:24:25;11.18;;;10.02;;
51854;SDS011;37895;53.240;6.572;2023-04-05T03:26:51;11.98;;;10.52;;
51854;SDS011;37895;53.240;6.572;2023-04-05T03:29:16;13.73;;;11.05;;
51854;SDS011;37895;53.240;6.572;2023-04-05T03:31:43;12.60;;;10.57;;
51854;SDS011;37895;53.240;6.572;2023-04-05T03:34:09;12.52;;;10.57;;
51854;SDS011;37895;53.240;6.572;2023-04-05T03:36:34;11.20;;;9.70;;
51854;SDS011;37895;53.240;6.572;2023-04-05T03:39:12;11.93;;;10.40;;
51854;SDS011;37895;53.240;6.572;2023-04-05T03:41:38;12.13;;;10.32;;
51854;SDS011;37895;53.240;6.572;2023-04-05T03:44:05;12.02;;;10.73;;
51854;SDS011;37895;53.240;6.572;2023-04-05T03:48:57;11.52;;;10.40;;
51854;SDS011;37895;53.240;6.572;2023-04-05T03:51:23;12.05;;;9.75;;
51854;SDS011;37895;53.240;6.572;2023-04-05T03:53:49;12.55;;;9.70;;
51854;SDS011;37895;53.240;6.572;2023-04-05T03:56:15;12.23;;;9.73;;
51854;SDS011;37895;53.240;6.572;2023-04-05T03:58:42;12.43;;;10.38;;
51854;SDS011;37895;53.240;6.572;2023-04-05T04:01:08;14.90;;;10.82;;
51854;SDS011;37895;53.240;6.572;2023-04-05T04:03:33;14.27;;;10.93;;
51854;SDS011;37895;53.240;6.572;2023-04-05T04:06:01;15.65;;;11.15;;
51854;SDS011;37895;53.240;6.572;2023-04-05T04:08:28;14.52;;;11.43;;
51854;SDS011;37895;53.240;6.572;2023-04-05T04:10:53;16.30;;;12.48;;
51854;SDS011;37895;53.240;6.572;2023-04-05T04:13:19;14.65;;;12.35;;
51854;SDS011;37895;53.240;6.572;2023-04-05T04:15:45;13.57;;;11.10;;
51854;SDS011;37895;53.240;6.572;2023-04-05T04:18:11;15.55;;;12.10;;
51854;SDS011;37895;53.240;6.572;2023-04-05T04:20:37;15.48;;;12.60;;
51854;SDS011;37895;53.240;6.572;2023-04-05T04:23:03;14.48;;;12.70;;
51854;SDS011;37895;53.240;6.572;2023-04-05T04:25:30;14.70;;;13.20;;
51854;SDS011;37895;53.240;6.572;2023-04-05T04:27:56;21.23;;;16.58;;
51854;SDS011;37895;53.240;6.572;2023-04-05T04:30:22;18.05;;;14.82;;
51854;SDS011;37895;53.240;6.572;2023-04-05T04:32:50;19.77;;;15.40;;
51854;SDS011;37895;53.240;6.572;2023-04-05T04:35:34;17.65;;;14.88;;
51854;SDS011;37895;53.240;6.572;2023-04-05T04:38:06;18.27;;;15.25;;
51854;SDS011;37895;53.240;6.572;2023-04-05T04:40:38;19.80;;;16.27;;
51854;SDS011;37895;53.240;6.572;2023-04-05T04:43:07;19.17;;;16.42;;
51854;SDS011;37895;53.240;6.572;2023-04-05T04:45:38;20.65;;;16.33;;
51854;SDS011;37895;53.240;6.572;2023-04-05T04:48:04;20.67;;;16.95;;
51854;SDS011;37895;53.240;6.572;2023-04-05T04:50:31;17.63;;;15.75;;
51854;SDS011;37895;53.240;6.572;2023-04-05T04:52:57;20.85;;;17.92;;
51854;SDS011;37895;53.240;6.572;2023-04-05T04:57:52;20.77;;;16.25;;
51854;SDS011;37895;53.240;6.572;2023-04-05T05:02:44;18.30;;;11.47;;
51854;SDS011;37895;53.240;6.572;2023-04-05T05:05:11;21.17;;;17.50;;
51854;SDS011;37895;53.240;6.572;2023-04-05T05:07:39;18.83;;;16.60;;
51854;SDS011;37895;53.240;6.572;2023-04-05T05:10:08;19.10;;;16.75;;
51854;SDS011;37895;53.240;6.572;2023-04-05T05:12:36;22.13;;;17.10;;
51854;SDS011;37895;53.240;6.572;2023-04-05T05:15:02;21.05;;;17.63;;
51854;SDS011;37895;53.240;6.572;2023-04-05T05:17:28;22.40;;;18.95;;
51854;SDS011;37895;53.240;6.572;2023-04-05T05:19:53;23.90;;;19.40;;
51854;SDS011;37895;53.240;6.572;2023-04-05T05:24:45;21.90;;;18.33;;
51854;SDS011;37895;53.240;6.572;2023-04-05T05:29:37;22.27;;;19.45;;
51854;SDS011;37895;53.240;6.572;2023-04-05T05:32:03;24.60;;;18.02;;
51854;SDS011;37895;53.240;6.572;2023-04-05T05:34:29;32.97;;;19.60;;
51854;SDS011;37895;53.240;6.572;2023-04-05T05:36:55;23.98;;;18.90;;
51854;SDS011;37895;53.240;6.572;2023-04-05T05:39:21;24.35;;;20.45;;
51854;SDS011;37895;53.240;6.572;2023-04-05T05:41:47;23.50;;;19.77;;
51854;SDS011;37895;53.240;6.572;2023-04-05T05:44:13;23.80;;;19.83;;
51854;SDS011;37895;53.240;6.572;2023-04-05T05:46:39;25.10;;;20.63;;
51854;SDS011;37895;53.240;6.572;2023-04-05T05:49:05;25.05;;;20.15;;
51854;SDS011;37895;53.240;6.572;2023-04-05T05:51:31;24.70;;;19.33;;
51854;SDS011;37895;53.240;6.572;2023-04-05T05:53:57;21.35;;;18.55;;
51854;SDS011;37895;53.240;6.572;2023-04-05T05:56:23;22.65;;;18.33;;
51854;SDS011;37895;53.240;6.572;2023-04-05T05:58:48;26.60;;;20.13;;
51854;SDS011;37895;53.240;6.572;2023-04-05T06:01:14;22.58;;;19.08;;
51854;SDS011;37895;53.240;6.572;2023-04-05T06:03:39;24.08;;;13.75;;
51854;SDS011;37895;53.240;6.572;2023-04-05T06:06:05;22.58;;;19.35;;
51854;SDS011;37895;53.240;6.572;2023-04-05T06:08:35;24.63;;;16.35;;
51854;SDS011;37895;53.240;6.572;2023-04-05T06:11:01;24.35;;;19.77;;
51854;SDS011;37895;53.240;6.572;2023-04-05T06:13:27;23.05;;;19.60;;
51854;SDS011;37895;53.240;6.572;2023-04-05T06:15:53;20.90;;;18.65;;
51854;SDS011;37895;53.240;6.572;2023-04-05T06:18:18;22.13;;;15.23;;
51854;SDS011;37895;53.240;6.572;2023-04-05T06:20:45;22.70;;;14.38;;
51854;SDS011;37895;53.240;6.572;2023-04-05T06:23:11;22.90;;;18.80;;
51854;SDS011;37895;53.240;6.572;2023-04-05T06:25:37;23.17;;;18.90;;
51854;SDS011;37895;53.240;6.572;2023-04-05T06:28:03;24.75;;;21.33;;
51854;SDS011;37895;53.240;6.572;2023-04-05T06:30:30;23.65;;;19.40;;
51854;SDS011;37895;53.240;6.572;2023-04-05T06:32:56;22.60;;;18.08;;
51854;SDS011;37895;53.240;6.572;2023-04-05T06:35:23;23.48;;;18.05;;
51854;SDS011;37895;53.240;6.572;2023-04-05T06:40:14;25.67;;;19.35;;
51854;SDS011;37895;53.240;6.572;2023-04-05T06:42:41;27.85;;;20.38;;
51854;SDS011;37895;53.240;6.572;2023-04-05T06:45:07;22.42;;;18.95;;
51854;SDS011;37895;53.240;6.572;2023-04-05T06:49:59;19.10;;;16.45;;
51854;SDS011;37895;53.240;6.572;2023-04-05T06:52:26;21.30;;;16.13;;
51854;SDS011;37895;53.240;6.572;2023-04-05T06:54:52;18.60;;;16.63;;
51854;SDS011;37895;53.240;6.572;2023-04-05T06:57:17;18.92;;;15.30;;
51854;SDS011;37895;53.240;6.572;2023-04-05T06:59:43;22.00;;;14.95;;
51854;SDS011;37895;53.240;6.572;2023-04-05T07:04:35;18.25;;;15.65;;
51854;SDS011;37895;53.240;6.572;2023-04-05T07:07:04;17.75;;;14.43;;
51854;SDS011;37895;53.240;6.572;2023-04-05T07:09:33;16.58;;;14.77;;
51854;SDS011;37895;53.240;6.572;2023-04-05T07:11:59;18.77;;;14.55;;
51854;SDS011;37895;53.240;6.572;2023-04-05T07:14:30;15.98;;;14.32;;
51854;SDS011;37895;53.240;6.572;2023-04-05T07:16:57;16.13;;;13.70;;
51854;SDS011;37895;53.240;6.572;2023-04-05T07:19:22;17.02;;;15.13;;
51854;SDS011;37895;53.240;6.572;2023-04-05T07:21:48;17.52;;;14.75;;
51854;SDS011;37895;53.240;6.572;2023-04-05T07:24:14;15.93;;;14.23;;
51854;SDS011;37895;53.240;6.572;2023-04-05T07:26:40;15.75;;;14.23;;
51854;SDS011;37895;53.240;6.572;2023-04-05T07:29:06;15.95;;;14.23;;
51854;SDS011;37895;53.240;6.572;2023-04-05T07:33:58;20.52;;;13.82;;
51854;SDS011;37895;53.240;6.572;2023-04-05T07:36:25;16.20;;;13.70;;
51854;SDS011;37895;53.240;6.572;2023-04-05T07:38:52;17.10;;;13.85;;
51854;SDS011;37895;53.240;6.572;2023-04-05T07:41:18;15.13;;;13.38;;
51854;SDS011;37895;53.240;6.572;2023-04-05T07:43:44;15.32;;;13.63;;
51854;SDS011;37895;53.240;6.572;2023-04-05T07:46:10;18.13;;;14.18;;
51854;SDS011;37895;53.240;6.572;2023-04-05T07:48:36;18.30;;;14.20;;
51854;SDS011;37895;53.240;6.572;2023-04-05T07:51:05;18.55;;;14.63;;
51854;SDS011;37895;53.240;6.572;2023-04-05T07:53:32;16.08;;;14.20;;
51854;SDS011;37895;53.240;6.572;2023-04-05T07:56:06;15.57;;;13.98;;
51854;SDS011;37895;53.240;6.572;2023-04-05T07:58:33;18.42;;;13.75;;
51854;SDS011;37895;53.240;6.572;2023-04-05T08:03:28;16.73;;;13.40;;
51854;SDS011;37895;53.240;6.572;2023-04-05T08:05:54;17.50;;;14.48;;
51854;SDS011;37895;53.240;6.572;2023-04-05T08:08:22;14.55;;;12.95;;
51854;SDS011;37895;53.240;6.572;2023-04-05T08:10:50;15.23;;;12.65;;
51854;SDS011;37895;53.240;6.572;2023-04-05T08:13:16;19.00;;;14.20;;
51854;SDS011;37895;53.240;6.572;2023-04-05T08:15:41;17.30;;;13.70;;
51854;SDS011;37895;53.240;6.572;2023-04-05T08:18:07;16.70;;;12.27;;
51854;SDS011;37895;53.240;6.572;2023-04-05T08:20:33;16.97;;;11.27;;
51854;SDS011;37895;53.240;6.572;2023-04-05T08:23:03;17.00;;;12.95;;
51854;SDS011;37895;53.240;6.572;2023-04-05T08:25:29;17.80;;;12.45;;
51854;SDS011;37895;53.240;6.572;2023-04-05T08:27:55;18.55;;;12.05;;
51854;SDS011;37895;53.240;6.572;2023-04-05T08:30:20;16.45;;;12.70;;
51854;SDS011;37895;53.240;6.572;2023-04-05T08:35:13;15.25;;;10.27;;
51854;SDS011;37895;53.240;6.572;2023-04-05T08:37:39;18.50;;;11.73;;
51854;SDS011;37895;53.240;6.572;2023-04-05T08:40:05;16.63;;;11.48;;
51854;SDS011;37895;53.240;6.572;2023-04-05T08:42:36;14.43;;;10.77;;
51854;SDS011;37895;53.240;6.572;2023-04-05T08:45:08;13.70;;;10.85;;
51854;SDS011;37895;53.240;6.572;2023-04-05T08:47:35;15.32;;;10.95;;
51854;SDS011;37895;53.240;6.572;2023-04-05T08:50:02;15.68;;;9.82;;
51854;SDS011;37895;53.240;6.572;2023-04-05T08:54:58;14.20;;;9.98;;
51854;SDS011;37895;53.240;6.572;2023-04-05T08:57:24;15.88;;;9.85;;
51854;SDS011;37895;53.240;6.572;2023-04-05T08:59:52;10.85;;;9.65;;
51854;SDS011;37895;53.240;6.572;2023-04-05T09:02:20;12.70;;;8.80;;
51854;SDS011;37895;53.240;6.572;2023-04-05T09:04:48;10.57;;;8.77;;
51854;SDS011;37895;53.240;6.572;2023-04-05T09:09:45;13.75;;;8.77;;
51854;SDS011;37895;53.240;6.572;2023-04-05T09:12:13;10.88;;;7.70;;
51854;SDS011;37895;53.240;6.572;2023-04-05T09:14:39;13.38;;;8.57;;
51854;SDS011;37895;53.240;6.572;2023-04-05T09:17:05;10.88;;;8.13;;
51854;SDS011;37895;53.240;6.572;2023-04-05T09:19:31;10.32;;;8.35;;
51854;SDS011;37895;53.240;6.572;2023-04-05T09:22:01;13.77;;;9.23;;
51854;SDS011;37895;53.240;6.572;2023-04-05T09:24:38;11.27;;;8.80;;
51854;SDS011;37895;53.240;6.572;2023-04-05T09:27:09;12.30;;;8.68;;
51854;SDS011;37895;53.240;6.572;2023-04-05T09:29:37;11.65;;;7.95;;
51854;SDS011;37895;53.240;6.572;2023-04-05T09:32:04;14.18;;;8.32;;
51854;SDS011;37895;53.240;6.572;2023-04-05T09:34:31;10.38;;;8.20;;
51854;SDS011;37895;53.240;6.572;2023-04-05T09:36:58;11.07;;;7.60;;
51854;SDS011;37895;53.240;6.572;2023-04-05T09:39:28;11.52;;;7.18;;
51854;SDS011;37895;53.240;6.572;2023-04-05T09:42:05;10.52;;;6.85;;
51854;SDS011;37895;53.240;6.572;2023-04-05T09:44:52;11.05;;;6.78;;
51854;SDS011;37895;53.240;6.572;2023-04-05T09:47:25;9.02;;;6.65;;
51854;SDS011;37895;53.240;6.572;2023-04-05T09:49:55;11.13;;;7.25;;
51854;SDS011;37895;53.240;6.572;2023-04-05T09:57:15;10.30;;;7.88;;
51854;SDS011;37895;53.240;6.572;2023-04-05T09:59:44;12.00;;;7.07;;
51854;SDS011;37895;53.240;6.572;2023-04-05T10:02:10;9.95;;;6.45;;
51854;SDS011;37895;53.240;6.572;2023-04-05T10:04:39;10.60;;;6.00;;
51854;SDS011;37895;53.240;6.572;2023-04-05T10:07:09;9.27;;;5.85;;
51854;SDS011;37895;53.240;6.572;2023-04-05T10:09:37;9.10;;;6.50;;
51854;SDS011;37895;53.240;6.572;2023-04-05T10:12:08;10.77;;;6.43;;
51854;SDS011;37895;53.240;6.572;2023-04-05T10:14:36;11.10;;;6.43;;
51854;SDS011;37895;53.240;6.572;2023-04-05T10:22:35;12.85;;;7.13;;
51854;SDS011;37895;53.240;6.572;2023-04-05T10:25:23;8.65;;;6.85;;
51854;SDS011;37895;53.240;6.572;2023-04-05T10:27:54;9.23;;;6.28;;
51854;SDS011;37895;53.240;6.572;2023-04-05T10:30:34;9.23;;;6.60;;
51854;SDS011;37895;53.240;6.572;2023-04-05T10:33:21;9.68;;;6.72;;
51854;SDS011;37895;53.240;6.572;2023-04-05T10:39:10;9.13;;;6.75;;
51854;SDS011;37895;53.240;6.572;2023-04-05T10:41:39;9.43;;;6.15;;
51854;SDS011;37895;53.240;6.572;2023-04-05T10:44:11;10.60;;;6.00;;
51854;SDS011;37895;53.240;6.572;2023-04-05T10:46:39;7.32;;;5.82;;
51854;SDS011;37895;53.240;6.572;2023-04-05T10:49:51;7.65;;;5.75;;
51854;SDS011;37895;53.240;6.572;2023-04-05T10:52:00;9.82;;;5.75;;
51854;SDS011;37895;53.240;6.572;2023-04-05T10:54:27;9.68;;;6.38;;
51854;SDS011;37895;53.240;6.572;2023-04-05T10:56:53;9.85;;;6.68;;
51854;SDS011;37895;53.240;6.572;2023-04-05T10:59:20;11.05;;;5.95;;
51854;SDS011;37895;53.240;6.572;2023-04-05T11:01:47;13.32;;;6.20;;
51854;SDS011;37895;53.240;6.572;2023-04-05T11:04:13;12.63;;;6.63;;
51854;SDS011;37895;53.240;6.572;2023-04-05T11:06:40;9.98;;;6.65;;
51854;SDS011;37895;53.240;6.572;2023-04-05T11:11:38;9.93;;;6.15;;
51854;SDS011;37895;53.240;6.572;2023-04-05T11:16:47;8.32;;;5.57;;
51854;SDS011;37895;53.240;6.572;2023-04-05T11:19:18;9.80;;;6.30;;
51854;SDS011;37895;53.240;6.572;2023-04-05T11:21:44;8.65;;;6.50;;
51854;SDS011;37895;53.240;6.572;2023-04-05T11:24:11;8.57;;;5.93;;
51854;SDS011;37895;53.240;6.572;2023-04-05T11:29:07;7.70;;;6.10;;
51854;SDS011;37895;53.240;6.572;2023-04-05T11:31:33;12.73;;;7.00;;
51854;SDS011;37895;53.240;6.572;2023-04-05T11:33:59;7.57;;;5.70;;
51854;SDS011;37895;53.240;6.572;2023-04-05T11:41:57;7.38;;;5.68;;
51854;SDS011;37895;53.240;6.572;2023-04-05T11:44:25;9.75;;;6.40;;
51854;SDS011;37895;53.240;6.572;2023-04-05T11:46:52;8.77;;;5.72;;
51854;SDS011;37895;53.240;6.572;2023-04-05T11:49:20;8.13;;;5.80;;
51854;SDS011;37895;53.240;6.572;2023-04-05T11:51:47;7.65;;;5.75;;
51854;SDS011;37895;53.240;6.572;2023-04-05T11:54:33;9.40;;;6.15;;
51854;SDS011;37895;53.240;6.572;2023-04-05T11:56:59;8.85;;;5.78;;
51854;SDS011;37895;53.240;6.572;2023-04-05T12:01:14;10.00;;;5.72;;
51854;SDS011;37895;53.240;6.572;2023-04-05T12:03:41;7.32;;;5.28;;
51854;SDS011;37895;53.240;6.572;2023-04-05T12:06:07;10.48;;;5.88;;
51854;SDS011;37895;53.240;6.572;2023-04-05T12:08:42;6.47;;;5.50;;
51854;SDS011;37895;53.240;6.572;2023-04-05T12:11:14;7.30;;;5.68;;
51854;SDS011;37895;53.240;6.572;2023-04-05T12:13:41;8.43;;;5.28;;
51854;SDS011;37895;53.240;6.572;2023-04-05T12:16:07;7.97;;;5.25;;
51854;SDS011;37895;53.240;6.572;2023-04-05T12:18:36;11.32;;;5.88;;
51854;SDS011;37895;53.240;6.572;2023-04-05T12:23:37;6.00;;;4.90;;
51854;SDS011;37895;53.240;6.572;2023-04-05T12:26:02;7.35;;;5.07;;
51854;SDS011;37895;53.240;6.572;2023-04-05T12:31:17;9.02;;;5.07;;
51854;SDS011;37895;53.240;6.572;2023-04-05T12:34:10;8.68;;;5.10;;
51854;SDS011;37895;53.240;6.572;2023-04-05T12:36:36;9.88;;;6.30;;
51854;SDS011;37895;53.240;6.572;2023-04-05T12:39:06;7.72;;;5.25;;
51854;SDS011;37895;53.240;6.572;2023-04-05T12:41:33;8.98;;;5.63;;
51854;SDS011;37895;53.240;6.572;2023-04-05T12:44:15;7.03;;;5.80;;
51854;SDS011;37895;53.240;6.572;2023-04-05T12:46:58;9.73;;;5.35;;
51854;SDS011;37895;53.240;6.572;2023-04-05T12:49:29;6.78;;;5.45;;
51854;SDS011;37895;53.240;6.572;2023-04-05T12:52:01;6.30;;;5.03;;
51854;SDS011;37895;53.240;6.572;2023-04-05T12:54:27;7.40;;;5.18;;
51854;SDS011;37895;53.240;6.572;2023-04-05T12:56:52;6.38;;;5.50;;
51854;SDS011;37895;53.240;6.572;2023-04-05T12:59:18;7.78;;;5.38;;
51854;SDS011;37895;53.240;6.572;2023-04-05T13:01:45;7.38;;;5.45;;
51854;SDS011;37895;53.240;6.572;2023-04-05T13:04:10;8.77;;;5.70;;
51854;SDS011;37895;53.240;6.572;2023-04-05T13:06:36;7.80;;;5.15;;
51854;SDS011;37895;53.240;6.572;2023-04-05T13:09:02;7.03;;;5.43;;
51854;SDS011;37895;53.240;6.572;2023-04-05T13:11:28;8.98;;;5.28;;
51854;SDS011;37895;53.240;6.572;2023-04-05T13:13:53;9.48;;;5.75;;
51854;SDS011;37895;53.240;6.572;2023-04-05T13:16:19;7.70;;;5.30;;
51854;SDS011;37895;53.240;6.572;2023-04-05T13:18:45;6.95;;;5.00;;
51854;SDS011;37895;53.240;6.572;2023-04-05T13:21:11;6.82;;;5.13;;
51854;SDS011;37895;53.240;6.572;2023-04-05T13:23:37;7.57;;;5.55;;
51854;SDS011;37895;53.240;6.572;2023-04-05T13:26:04;11.30;;;5.88;;
51854;SDS011;37895;53.240;6.572;2023-04-05T13:30:56;7.57;;;5.20;;
51854;SDS011;37895;53.240;6.572;2023-04-05T13:33:22;8.73;;;5.10;;
51854;SDS011;37895;53.240;6.572;2023-04-05T13:35:48;7.88;;;5.35;;
51854;SDS011;37895;53.240;6.572;2023-04-05T13:38:13;9.70;;;5.47;;
51854;SDS011;37895;53.240;6.572;2023-04-05T13:40:39;6.83;;;5.17;;
51854;SDS011;37895;53.240;6.572;2023-04-05T13:43:05;7.55;;;5.20;;
51854;SDS011;37895;53.240;6.572;2023-04-05T13:45:31;7.05;;;4.70;;
51854;SDS011;37895;53.240;6.572;2023-04-05T13:47:57;7.70;;;5.63;;
51854;SDS011;37895;53.240;6.572;2023-04-05T13:50:23;7.30;;;4.95;;
51854;SDS011;37895;53.240;6.572;2023-04-05T13:55:15;5.10;;;4.57;;
51854;SDS011;37895;53.240;6.572;2023-04-05T13:57:42;8.80;;;4.78;;
51854;SDS011;37895;53.240;6.572;2023-04-05T14:00:08;9.93;;;5.38;;
51854;SDS011;37895;53.240;6.572;2023-04-05T14:02:34;6.20;;;4.70;;
51854;SDS011;37895;53.240;6.572;2023-04-05T14:05:00;6.95;;;4.75;;
51854;SDS011;37895;53.240;6.572;2023-04-05T14:07:26;7.78;;;4.50;;
51854;SDS011;37895;53.240;6.572;2023-04-05T14:09:51;6.70;;;4.53;;
51854;SDS011;37895;53.240;6.572;2023-04-05T14:12:17;5.47;;;4.55;;
51854;SDS011;37895;53.240;6.572;2023-04-05T14:14:43;6.90;;;4.53;;
51854;SDS011;37895;53.240;6.572;2023-04-05T14:17:08;9.18;;;4.80;;
51854;SDS011;37895;53.240;6.572;2023-04-05T14:19:36;6.55;;;4.75;;
51854;SDS011;37895;53.240;6.572;2023-04-05T14:24:28;7.95;;;4.65;;
51854;SDS011;37895;53.240;6.572;2023-04-05T14:26:54;5.50;;;4.75;;
51854;SDS011;37895;53.240;6.572;2023-04-05T14:29:20;6.32;;;4.90;;
51854;SDS011;37895;53.240;6.572;2023-04-05T14:31:46;6.68;;;4.50;;
51854;SDS011;37895;53.240;6.572;2023-04-05T14:34:12;6.47;;;4.65;;
51854;SDS011;37895;53.240;6.572;2023-04-05T14:36:38;8.48;;;5.18;;
51854;SDS011;37895;53.240;6.572;2023-04-05T14:39:07;5.93;;;5.15;;
51854;SDS011;37895;53.240;6.572;2023-04-05T14:41:33;6.78;;;5.53;;
51854;SDS011;37895;53.240;6.572;2023-04-05T14:43:59;5.53;;;4.55;;
51854;SDS011;37895;53.240;6.572;2023-04-05T14:46:25;6.25;;;4.90;;
51854;SDS011;37895;53.240;6.572;2023-04-05T14:48:50;6.72;;;4.85;;
51854;SDS011;37895;53.240;6.572;2023-04-05T14:51:16;7.90;;;5.15;;
51854;SDS011;37895;53.240;6.572;2023-04-05T14:53:42;6.72;;;4.90;;
51854;SDS011;37895;53.240;6.572;2023-04-05T14:56:07;5.88;;;5.07;;
51854;SDS011;37895;53.240;6.572;2023-04-05T14:58:36;9.50;;;4.68;;
51854;SDS011;37895;53.240;6.572;2023-04-05T15:01:02;6.88;;;4.57;;
51854;SDS011;37895;53.240;6.572;2023-04-05T15:03:28;7.43;;;5.15;;
51854;SDS011;37895;53.240;6.572;2023-04-05T15:08:20;7.03;;;5.00;;
51854;SDS011;37895;53.240;6.572;2023-04-05T15:10:46;8.38;;;4.90;;
51854;SDS011;37895;53.240;6.572;2023-04-05T15:13:11;7.00;;;4.97;;
51854;SDS011;37895;53.240;6.572;2023-04-05T15:15:37;5.38;;;4.35;;
51854;SDS011;37895;53.240;6.572;2023-04-05T15:18:03;5.32;;;4.50;;
51854;SDS011;37895;53.240;6.572;2023-04-05T15:20:31;8.43;;;4.57;;
51854;SDS011;37895;53.240;6.572;2023-04-05T15:22:57;7.43;;;5.20;;
51854;SDS011;37895;53.240;6.572;2023-04-05T15:25:23;6.78;;;4.78;;
51854;SDS011;37895;53.240;6.572;2023-04-05T15:27:48;6.15;;;4.55;;
51854;SDS011;37895;53.240;6.572;2023-04-05T15:30:15;5.97;;;4.55;;
51854;SDS011;37895;53.240;6.572;2023-04-05T15:32:40;7.00;;;4.00;;
51854;SDS011;37895;53.240;6.572;2023-04-05T15:35:06;6.82;;;4.47;;
51854;SDS011;37895;53.240;6.572;2023-04-05T15:37:32;6.80;;;4.40;;
51854;SDS011;37895;53.240;6.572;2023-04-05T15:39:58;6.13;;;4.70;;
51854;SDS011;37895;53.240;6.572;2023-04-05T15:42:23;6.03;;;4.57;;
51854;SDS011;37895;53.240;6.572;2023-04-05T15:44:49;6.18;;;4.38;;
51854;SDS011;37895;53.240;6.572;2023-04-05T15:47:15;7.28;;;4.68;;
51854;SDS011;37895;53.240;6.572;2023-04-05T15:49:41;6.68;;;4.30;;
51854;SDS011;37895;53.240;6.572;2023-04-05T15:52:08;6.60;;;4.72;;
51854;SDS011;37895;53.240;6.572;2023-04-05T15:54:34;7.28;;;4.68;;
51854;SDS011;37895;53.240;6.572;2023-04-05T15:57:00;8.57;;;5.07;;
51854;SDS011;37895;53.240;6.572;2023-04-05T15:59:26;8.55;;;5.18;;
51854;SDS011;37895;53.240;6.572;2023-04-05T16:01:52;7.00;;;5.10;;
51854;SDS011;37895;53.240;6.572;2023-04-05T16:04:17;7.97;;;5.00;;
51854;SDS011;37895;53.240;6.572;2023-04-05T16:06:43;7.20;;;5.07;;
51854;SDS011;37895;53.240;6.572;2023-04-05T16:09:09;6.15;;;4.80;;